Time;durP1;ratioP1;P1;durP2;ratioP2;P2;SDS_P1;SDS_P2;PMS_P1;PMS_P2;Temp;Humidity;BMP_temperature;BMP_pressure;BME280_temperature;BME280_humidity;BME280_pressure;Samples;Min_cycle;Max_cycle;Signal;HPM_P1;HPM_P2
2023/04/01 00:01:09;;;;;;;;;;;;;;;18.70;50.18;99548.09;7255651;19;154819;-54
2023/04/01 00:03:36;;;;;;;;;;;;;;;18.67;50.40;99547.59;7261058;19;153846;-54
2023/04/01 00:06:04;;;;;;;;;;;;;;;18.67;50.01;99555.97;7258612;19;152090;-54
2023/04/01 00:08:31;;;;;;;;;;;;;;;18.64;50.05;99556.66;7260123;19;153769;-54
2023/04/01 00:10:58;;;;;;;;;;;;;;;18.67;50.31;99560.75;7258689;19;152621;-54
2023/04/01 00:13:26;;;;;;;;;;;;;;;18.69;50.03;99558.44;7260884;19;152748;-54
2023/04/01 00:15:53;;;;;;;;;;;;;;;18.67;50.24;99567.16;7266236;19;153968;-54
2023/04/01 00:18:22;;;;;;;;;;;;;;;18.65;50.11;99565.88;7256632;19;153063;-54
2023/04/01 00:20:50;;;;;;;;;;;;;;;18.64;49.96;99567.00;7260538;19;154333;-54
2023/04/01 00:23:17;;;;;;;;;;;;;;;18.65;49.99;99574.25;7260485;19;154428;-54
2023/04/01 00:25:46;;;;;;;;;;;;;;;18.63;50.17;99574.56;7259107;19;152767;-54
2023/04/01 00:28:13;;;;;;;;;;;;;;;18.63;50.08;99582.13;7259024;19;153963;-54
2023/04/01 00:30:40;;;;;;;;;;;;;;;18.64;50.04;99583.78;7258619;19;153702;-54
2023/04/01 00:33:07;;;;;;;;;;;;;;;18.62;50.25;99586.13;7260024;19;152548;-54
2023/04/01 00:35:34;;;;;;;;;;;;;;;18.58;49.89;99588.72;7259859;19;153740;-55
2023/04/01 00:38:01;;;;;;;;;;;;;;;18.63;50.05;99601.72;7264238;19;153349;-54
2023/04/01 00:40:31;;;;;;;;;;;;;;;18.62;49.77;99594.50;7265301;19;153040;-54
2023/04/01 00:42:58;;;;;;;;;;;;;;;18.62;50.22;99603.69;7258772;19;153993;-54
2023/04/01 00:45:27;;;;;;;;;;;;;;;18.61;50.20;99612.44;7259006;19;152696;-54
2023/04/01 00:47:58;;;;;;;;;;;;;;;18.61;50.26;99604.88;7257336;19;154281;-54
2023/04/01 00:50:26;;;;;;;;;;;;;;;18.58;50.24;99613.06;7258214;19;153846;-54
2023/04/01 00:52:53;;;;;;;;;;;;;;;18.56;50.11;99607.00;7260184;19;151914;-54
2023/04/01 00:55:21;;;;;;;;;;;;;;;18.58;50.27;99616.69;7256353;19;152646;-54
2023/04/01 00:57:49;;;;;;;;;;;;;;;18.56;50.27;99621.81;7259454;19;153918;-54
2023/04/01 01:00:21;;;;;;;;;;;;;;;18.60;49.94;99621.97;7266750;19;152788;-55
2023/04/01 01:02:50;;;;;;;;;;;;;;;18.58;50.17;99627.88;7258653;19;154045;-54
2023/04/01 01:05:21;;;;;;;;;;;;;;;18.56;49.81;99624.59;7257343;19;152523;-54
2023/04/01 01:07:57;;;;;;;;;;;;;;;18.56;49.80;99632.16;7256106;19;152892;-54
2023/04/01 01:10:30;;;;;;;;;;;;;;;18.57;50.04;99628.22;7256822;19;153823;-54
2023/04/01 01:13:00;;;;;;;;;;;;;;;18.55;50.00;99630.53;7259809;19;153368;-54
2023/04/01 01:15:27;;;;;;;;;;;;;;;18.59;50.05;99642.69;7258750;19;154010;-54
2023/04/01 01:17:55;;;;;;;;;;;;;;;18.57;49.72;99639.41;7256633;19;154040;-54
2023/04/01 01:20:30;;;;;;;;;;;;;;;18.54;50.16;99646.47;7267449;19;152701;-54
2023/04/01 01:23:00;;;;;;;;;;;;;;;18.53;49.71;99644.03;7259412;19;154141;-54
2023/04/01 01:25:36;;;;;;;;;;;;;;;18.54;50.18;99651.25;7255767;19;152404;-54
2023/04/01 01:28:15;;;;;;;;;;;;;;;18.53;50.18;99658.00;7254367;19;153801;-54
2023/04/01 01:30:45;;;;;;;;;;;;;;;18.52;49.74;99651.56;7255416;19;153271;-54
2023/04/01 01:33:32;;;;;;;;;;;;;;;18.53;50.07;99658.00;7257287;19;152287;-54
2023/04/01 01:36:02;;;;;;;;;;;;;;;18.51;49.84;99663.06;7256290;19;153769;-54
2023/04/01 01:38:33;;;;;;;;;;;;;;;18.51;50.11;99674.25;7256730;19;153544;-54
2023/04/01 01:41:03;;;;;;;;;;;;;;;18.49;49.98;99660.56;7257352;19;153326;-54
2023/04/01 01:43:33;;;;;;;;;;;;;;;18.50;49.70;99672.59;7266831;19;153578;-54
2023/04/01 01:46:02;;;;;;;;;;;;;;;18.46;50.00;99672.44;7254210;19;152900;-55
2023/04/01 01:48:30;;;;;;;;;;;;;;;18.47;49.91;99671.28;7261328;19;153709;-54
2023/04/01 01:50:58;;;;;;;;;;;;;;;18.48;49.85;99677.69;7257062;19;153515;-54
2023/04/01 01:53:28;;;;;;;;;;;;;;;18.47;49.72;99682.47;7259804;19;153662;-54
2023/04/01 01:55:55;;;;;;;;;;;;;;;18.50;49.61;99684.59;7257093;19;153143;-54
2023/04/01 01:58:25;;;;;;;;;;;;;;;18.47;49.68;99687.25;7255943;19;154568;-54
2023/04/01 02:00:54;;;;;;;;;;;;;;;18.46;49.99;99693.97;7259741;19;154133;-54
2023/04/01 02:03:25;;;;;;;;;;;;;;;18.47;49.72;99698.44;7257506;19;153489;-54
2023/04/01 02:05:53;;;;;;;;;;;;;;;18.42;50.08;99693.81;7261703;19;153406;-55
2023/04/01 02:08:22;;;;;;;;;;;;;;;18.44;49.99;99704.69;7257306;19;153415;-54
2023/04/01 02:10:55;;;;;;;;;;;;;;;18.43;49.85;99703.84;7257403;19;153777;-54
2023/04/01 02:13:26;;;;;;;;;;;;;;;18.44;50.02;99699.09;7258527;19;151976;-55
2023/04/01 02:15:56;;;;;;;;;;;;;;;18.42;49.58;99706.97;7252267;19;153518;-54
2023/04/01 02:18:24;;;;;;;;;;;;;;;18.43;49.75;99717.84;7257364;19;154600;-54
2023/04/01 02:20:51;;;;;;;;;;;;;;;18.42;49.62;99713.38;7256586;19;152352;-54
2023/04/01 02:23:18;;;;;;;;;;;;;;;18.42;49.86;99720.94;7259226;19;153711;-54
2023/04/01 02:25:46;;;;;;;;;;;;;;;18.44;49.90;99724.25;7252589;19;153291;-54
2023/04/01 02:28:16;;;;;;;;;;;;;;;18.42;49.82;99729.34;7262925;19;152583;-54
2023/04/01 02:30:44;;;;;;;;;;;;;;;18.40;49.80;99726.84;7258273;19;153778;-54
2023/04/01 02:33:11;;;;;;;;;;;;;;;18.40;49.61;99724.06;7255961;19;152972;-54
2023/04/01 02:35:38;;;;;;;;;;;;;;;18.40;49.50;99728.81;7254491;19;153440;-54
2023/04/01 02:38:05;;;;;;;;;;;;;;;18.39;49.55;99735.59;7254858;19;154422;-54
2023/04/01 02:40:42;;;;;;;;;;;;;;;18.38;49.97;99740.34;7259712;19;152938;-54
2023/04/01 02:43:09;;;;;;;;;;;;;;;18.39;49.82;99741.19;7262601;19;153371;-54
2023/04/01 02:45:36;;;;;;;;;;;;;;;18.37;49.51;99735.91;7263315;19;154155;-55
2023/04/01 02:48:03;;;;;;;;;;;;;;;18.37;49.81;99744.28;7262147;19;153117;-54
2023/04/01 02:50:30;;;;;;;;;;;;;;;18.35;49.85;99743.78;7270811;19;153292;-54
2023/04/01 02:52:59;;;;;;;;;;;;;;;18.38;49.54;99748.75;7260508;19;152610;-54
2023/04/01 02:55:26;;;;;;;;;;;;;;;18.37;49.67;99746.25;7259286;19;153421;-54
2023/04/01 02:57:53;;;;;;;;;;;;;;;18.38;49.48;99747.91;7260853;19;153957;-54
2023/04/01 03:00:20;;;;;;;;;;;;;;;18.37;49.74;99752.69;7267121;19;152403;-54
2023/04/01 03:02:46;;;;;;;;;;;;;;;18.36;49.49;99753.81;7259433;19;153286;-55
2023/04/01 03:05:14;;;;;;;;;;;;;;;18.34;49.78;99760.88;7259594;19;153393;-54
2023/04/01 03:07:43;;;;;;;;;;;;;;;18.31;49.54;99759.56;7259626;19;154101;-54
2023/04/01 03:10:10;;;;;;;;;;;;;;;18.34;49.75;99761.72;7260626;19;153596;-54
2023/04/01 03:12:37;;;;;;;;;;;;;;;18.33;49.75;99767.63;7267054;19;153471;-54
2023/04/01 03:15:05;;;;;;;;;;;;;;;18.31;49.61;99764.31;7261627;19;152982;-54
2023/04/01 03:17:37;;;;;;;;;;;;;;;18.31;49.44;99770.72;7252330;19;154215;-54
2023/04/01 03:20:04;;;;;;;;;;;;;;;18.29;49.79;99767.44;7262204;19;151879;-54
2023/04/01 03:22:31;;;;;;;;;;;;;;;18.30;49.69;99780.28;7264581;19;152752;-54
2023/04/01 03:24:58;;;;;;;;;;;;;;;18.29;49.42;99777.81;7263437;19;153990;-54
2023/04/01 03:27:25;;;;;;;;;;;;;;;18.30;49.41;99776.66;7261997;19;153180;-54
2023/04/01 03:29:52;;;;;;;;;;;;;;;18.32;49.66;99782.75;7263942;19;152466;-54
2023/04/01 03:32:19;;;;;;;;;;;;;;;18.30;49.73;99783.09;7264759;19;154164;-54
2023/04/01 03:34:45;;;;;;;;;;;;;;;18.29;49.32;99780.59;7260095;19;153371;-54
2023/04/01 03:37:12;;;;;;;;;;;;;;;18.27;49.74;99786.50;7261490;19;153831;-54
2023/04/01 03:39:39;;;;;;;;;;;;;;;18.29;49.46;99791.78;7260068;19;152402;-54
2023/04/01 03:42:08;;;;;;;;;;;;;;;18.25;49.73;99794.41;7264628;19;153542;-54
2023/04/01 03:44:35;;;;;;;;;;;;;;;18.27;49.70;99799.66;7260964;19;153481;-54
2023/04/01 03:47:02;;;;;;;;;;;;;;;18.25;49.41;99801.97;7258221;19;152625;-54
2023/04/01 03:49:29;;;;;;;;;;;;;;;18.24;49.51;99801.13;7259396;19;153120;-54
2023/04/01 03:51:56;;;;;;;;;;;;;;;18.26;49.33;99806.41;7259772;19;153488;-54
2023/04/01 03:54:22;;;;;;;;;;;;;;;18.25;49.53;99804.75;7265852;19;152450;-54
2023/04/01 03:56:49;;;;;;;;;;;;;;;18.25;49.69;99810.34;7259599;19;153579;-55
2023/04/01 03:59:16;;;;;;;;;;;;;;;18.22;49.66;99818.22;7260252;19;151996;-54
2023/04/01 04:01:43;;;;;;;;;;;;;;;18.21;49.64;99816.56;7260798;19;153487;-54
2023/04/01 04:04:13;;;;;;;;;;;;;;;18.21;49.35;99813.78;7259897;19;154153;-54
2023/04/01 04:06:40;;;;;;;;;;;;;;;18.21;49.45;99819.38;7260523;19;153337;-54
2023/04/01 04:09:09;;;;;;;;;;;;;;;18.19;49.84;99829.22;7263154;19;153241;-54
2023/04/01 04:11:36;;;;;;;;;;;;;;;18.20;49.41;99828.91;7260431;19;154543;-54
2023/04/01 04:14:03;;;;;;;;;;;;;;;18.20;49.84;99836.47;7264315;19;153012;-54
2023/04/01 04:16:30;;;;;;;;;;;;;;;18.19;49.65;99843.19;7264389;19;152704;-54
2023/04/01 04:18:57;;;;;;;;;;;;;;;18.19;49.47;99841.25;7263935;19;153674;-54
2023/04/01 04:21:24;;;;;;;;;;;;;;;18.20;49.68;99853.25;7263579;19;153480;-54
2023/04/01 04:23:51;;;;;;;;;;;;;;;18.17;49.82;99846.31;7258870;19;154400;-54
2023/04/01 04:26:18;;;;;;;;;;;;;;;18.17;49.77;99854.69;7258105;19;153308;-55
2023/04/01 04:28:45;;;;;;;;;;;;;;;18.18;49.37;99853.56;7259507;19;152855;-54
2023/04/01 04:31:12;;;;;;;;;;;;;;;18.17;49.72;99860.28;7259524;19;153582;-54
2023/04/01 04:33:39;;;;;;;;;;;;;;;18.18;49.62;99850.75;7261277;19;152533;-54
2023/04/01 04:36:06;;;;;;;;;;;;;;;18.17;49.62;99865.03;7260041;19;153508;-54
2023/04/01 04:38:32;;;;;;;;;;;;;;;18.15;49.80;99867.34;7266400;19;153794;-54
2023/04/01 04:40:59;;;;;;;;;;;;;;;18.16;49.41;99866.22;7261109;19;154170;-55
2023/04/01 04:43:26;;;;;;;;;;;;;;;18.16;49.55;99863.41;7257264;19;154020;-54
2023/04/01 04:45:53;;;;;;;;;;;;;;;18.15;49.36;99857.00;7256829;19;152454;-54
2023/04/01 04:48:20;;;;;;;;;;;;;;;18.14;49.72;99872.13;7256843;19;153714;-54
2023/04/01 04:50:48;;;;;;;;;;;;;;;18.15;49.27;99868.19;7258794;19;154191;-54
2023/04/01 04:53:16;;;;;;;;;;;;;;;18.14;49.81;99871.28;7262297;19;153287;-54
2023/04/01 04:55:45;;;;;;;;;;;;;;;18.14;49.38;99874.91;7257530;19;153806;-54
2023/04/01 04:58:11;;;;;;;;;;;;;;;18.16;49.28;99880.19;7255903;19;153485;-54
2023/04/01 05:00:38;;;;;;;;;;;;;;;18.14;49.62;99882.47;7266035;19;153375;-54
2023/04/01 05:03:05;;;;;;;;;;;;;;;18.14;49.32;99885.25;7258572;19;154553;-54
2023/04/01 05:05:35;;;;;;;;;;;;;;;18.11;49.71;99891.50;7256500;19;152562;-56
2023/04/01 05:08:02;;;;;;;;;;;;;;;18.10;49.53;99893.47;7257589;19;153420;-54
2023/04/01 05:10:30;;;;;;;;;;;;;;;18.11;49.69;99903.50;7258198;19;154692;-54
2023/04/01 05:12:57;;;;;;;;;;;;;;;18.12;49.53;99901.53;7257105;19;152314;-54
2023/04/01 05:15:24;;;;;;;;;;;;;;;18.13;49.52;99912.38;7257169;19;153366;-54
2023/04/01 05:17:51;;;;;;;;;;;;;;;18.09;49.49;99913.34;7250082;19;154208;-54
2023/04/01 05:20:18;;;;;;;;;;;;;;;18.10;49.60;99915.00;7265508;19;152892;-54
2023/04/01 05:22:45;;;;;;;;;;;;;;;18.09;49.45;99916.97;7259083;19;153839;-54
2023/04/01 05:25:12;;;;;;;;;;;;;;;18.10;49.38;99918.63;7258958;19;152767;-54
2023/04/01 05:27:38;;;;;;;;;;;;;;;18.10;49.24;99926.19;7259432;19;153365;-54
2023/04/01 05:30:06;;;;;;;;;;;;;;;18.07;49.63;99919.28;7257345;19;153435;-55
2023/04/01 05:32:33;;;;;;;;;;;;;;;18.08;49.38;99920.91;7257640;19;152538;-54
2023/04/01 05:34:59;;;;;;;;;;;;;;;18.08;49.46;99920.91;7258298;19;153449;-54
2023/04/01 05:37:26;;;;;;;;;;;;;;;18.08;49.10;99922.91;7255966;19;153921;-54
2023/04/01 05:39:53;;;;;;;;;;;;;;;18.05;49.36;99927.13;7260428;19;152185;-54
2023/04/01 05:42:22;;;;;;;;;;;;;;;18.05;49.53;99921.53;7267824;19;153289;-54
2023/04/01 05:44:50;;;;;;;;;;;;;;;18.09;49.14;99932.91;7249190;19;152592;-54
2023/04/01 05:47:16;;;;;;;;;;;;;;;18.07;49.15;99938.00;7255048;19;154532;-54
2023/04/01 05:49:43;;;;;;;;;;;;;;;18.06;49.33;99939.13;7256573;19;154457;-55
2023/04/01 05:52:10;;;;;;;;;;;;;;;18.05;49.22;99940.28;7256771;19;152013;-55
2023/04/01 05:54:37;;;;;;;;;;;;;;;18.06;49.27;99953.94;7255539;19;154228;-54
2023/04/01 05:57:04;;;;;;;;;;;;;;;18.05;49.03;99954.25;7253906;19;153843;-54
2023/04/01 05:59:31;;;;;;;;;;;;;;;18.02;49.36;99958.53;7259393;19;152933;-54
2023/04/01 06:01:58;;;;;;;;;;;;;;;18.01;49.46;99954.06;7259265;19;154283;-54
2023/04/01 06:04:28;;;;;;;;;;;;;;;18.02;49.38;99964.09;7259843;19;154099;-54
2023/04/01 06:06:55;;;;;;;;;;;;;;;18.02;49.17;99964.09;7257671;19;153521;-54
2023/04/01 06:09:26;;;;;;;;;;;;;;;18.02;49.13;99964.09;7256809;19;154304;-54
2023/04/01 06:12:03;;;;;;;;;;;;;;;18.03;49.37;99962.16;7257315;19;152878;-54
2023/04/01 06:14:30;;;;;;;;;;;;;;;18.01;49.21;99964.41;7254299;19;151927;-54
2023/04/01 06:17:07;;;;;;;;;;;;;;;18.01;49.37;99973.63;7252803;19;153559;-54
2023/04/01 06:19:34;;;;;;;;;;;;;;;18.03;49.21;99979.75;7263635;19;152537;-54
2023/04/01 06:22:02;;;;;;;;;;;;;;;18.04;49.37;99986.97;7263933;19;153276;-54
2023/04/01 06:24:29;;;;;;;;;;;;;;;18.02;49.49;99989.25;7263958;19;154172;-54
2023/04/01 06:27:06;;;;;;;;;;;;;;;18.02;49.52;99992.06;7267561;19;153062;-54
2023/04/01 06:29:44;;;;;;;;;;;;;;;18.01;49.03;99987.59;7264080;19;154198;-54
2023/04/01 06:32:20;;;;;;;;;;;;;;;18.02;49.37;99997.66;7262420;19;152893;-54
2023/04/01 06:34:58;;;;;;;;;;;;;;;17.99;49.09;99995.47;7259947;19;153867;-54
2023/04/01 06:37:35;;;;;;;;;;;;;;;17.98;49.53;99991.03;7262593;19;153384;-54
2023/04/01 06:40:03;;;;;;;;;;;;;;;17.99;49.14;100003.84;7261921;19;152510;-54
2023/04/01 06:42:33;;;;;;;;;;;;;;;17.99;49.24;99997.47;7261548;19;153656;-54
2023/04/01 06:45:01;;;;;;;;;;;;;;;17.97;49.03;100010.91;7263201;19;153560;-54
2023/04/01 06:47:38;;;;;;;;;;;;;;;17.98;49.12;100013.41;7257058;19;152986;-54
2023/04/01 06:50:25;;;;;;;;;;;;;;;17.99;49.00;100012.22;7270743;19;153080;-54
2023/04/01 06:53:00;;;;;;;;;;;;;;;17.97;49.13;100013.69;7266095;19;152586;-54
2023/04/01 06:55:33;;;;;;;;;;;;;;;17.97;49.10;100017.31;7259304;19;153620;-54
2023/04/01 06:58:03;;;;;;;;;;;;;;;17.95;49.50;100025.19;7262545;19;153219;-54
2023/04/01 07:00:32;;;;;;;;;;;;;;;17.95;49.29;100024.34;7262834;19;152237;-54
2023/04/01 07:03:02;;;;;;;;;;;;;;;17.95;49.26;100024.34;7260928;19;153014;-55
2023/04/01 07:05:33;;;;;;;;;;;;;;;17.93;49.12;100027.47;7260364;19;153489;-55
2023/04/01 07:08:02;;;;;;;;;;;;;;;17.92;49.35;100028.63;7261909;19;153086;-55
2023/04/01 07:10:38;;;;;;;;;;;;;;;17.94;49.13;100036.69;7261328;19;152684;-55
2023/04/01 07:13:10;;;;;;;;;;;;;;;17.95;49.10;100033.56;7269135;19;153606;-55
2023/04/01 07:15:39;;;;;;;;;;;;;;;17.94;49.42;100047.88;7257945;19;154213;-55
2023/04/01 07:18:14;;;;;;;;;;;;;;;17.94;49.09;100045.06;7257508;19;153457;-55
2023/04/01 07:20:41;;;;;;;;;;;;;;;17.92;49.12;100050.97;7261397;19;151966;-55
2023/04/01 07:23:18;;;;;;;;;;;;;;;17.95;49.08;100055.91;7263982;19;152746;-54
2023/04/01 07:25:46;;;;;;;;;;;;;;;17.94;49.03;100059.88;7260904;19;153497;-54
2023/04/01 07:28:16;;;;;;;;;;;;;;;17.92;49.22;100053.75;7262488;19;153880;-54
2023/04/01 07:30:54;;;;;;;;;;;;;;;17.91;49.44;100060.47;7261993;19;153024;-54
2023/04/01 07:33:30;;;;;;;;;;;;;;;17.94;49.17;100062.69;7269277;19;153242;-54
2023/04/01 07:36:07;;;;;;;;;;;;;;;17.92;48.94;100076.13;7255196;19;153272;-54
2023/04/01 07:38:34;;;;;;;;;;;;;;;17.93;49.33;100085.34;7262196;19;153735;-54
2023/04/01 07:41:11;;;;;;;;;;;;;;;17.92;49.07;100083.66;7265895;19;152597;-54
2023/04/01 07:43:48;;;;;;;;;;;;;;;17.89;49.21;100082.34;7262003;19;153207;-54
2023/04/01 07:46:30;;;;;;;;;;;;;;;17.94;48.96;100084.19;7256103;19;154051;-54
2023/04/01 07:48:58;;;;;;;;;;;;;;;17.92;48.91;100097.66;7258272;19;152444;-54
2023/04/01 07:51:35;;;;;;;;;;;;;;;17.88;49.08;100103.03;7260726;19;154053;-54
2023/04/01 07:54:07;;;;;;;;;;;;;;;17.91;49.31;100098.78;7256213;19;154131;-55
2023/04/01 07:56:40;;;;;;;;;;;;;;;17.89;49.33;100104.69;7265605;19;152279;-54
2023/04/01 07:59:07;;;;;;;;;;;;;;;17.90;49.24;100111.91;7260913;19;153492;-54
2023/04/01 08:01:34;;;;;;;;;;;;;;;17.89;48.98;100107.50;7261241;19;153250;-54
2023/04/01 08:04:02;;;;;;;;;;;;;;;17.89;48.86;100113.09;7260329;19;154230;-54
2023/04/01 08:06:31;;;;;;;;;;;;;;;17.90;48.89;100125.88;7258662;19;154326;-54
2023/04/01 08:09:07;;;;;;;;;;;;;;;17.90;49.14;100123.09;7260834;19;152800;-54
2023/04/01 08:11:44;;;;;;;;;;;;;;;17.89;49.04;100121.47;7260641;19;153512;-54
2023/04/01 08:14:21;;;;;;;;;;;;;;;17.89;49.14;100118.66;7257497;19;153176;-54
2023/04/01 08:16:54;;;;;;;;;;;;;;;17.88;49.02;100128.19;7255677;19;154540;-54
2023/04/01 08:19:30;;;;;;;;;;;;;;;17.89;48.92;100134.59;7267389;19;152852;-54
2023/04/01 08:21:58;;;;;;;;;;;;;;;17.88;48.92;100135.72;7261995;19;154312;-54
2023/04/01 08:24:35;;;;;;;;;;;;;;;17.87;48.93;100140.50;7261194;19;152693;-54
2023/04/01 08:27:17;;;;;;;;;;;;;;;17.87;49.06;100143.28;7256861;19;153327;-54
2023/04/01 08:29:49;;;;;;;;;;;;;;;17.88;49.06;100136.56;7259321;19;152768;-55
2023/04/01 08:32:21;;;;;;;;;;;;;;;17.88;49.09;100136.56;7260843;19;153473;-54
2023/04/01 08:34:54;;;;;;;;;;;;;;;17.87;49.07;100153.63;7257450;19;153993;-54
2023/04/01 08:37:24;;;;;;;;;;;;;;;17.90;49.06;100151.03;7256665;19;152250;-54
2023/04/01 08:39:54;;;;;;;;;;;;;;;17.89;49.08;100160.59;7260769;19;153343;-54
2023/04/01 08:42:31;;;;;;;;;;;;;;;17.87;49.27;100162.00;7270034;19;153319;-55
2023/04/01 08:45:05;;;;;;;;;;;;;;;17.87;49.07;100162.00;7258048;19;154068;-54
2023/04/01 08:47:41;;;;;;;;;;;;;;;17.87;49.26;100167.59;7254361;19;154016;-54
2023/04/01 08:50:10;;;;;;;;;;;;;;;17.89;49.15;100168.13;7262714;19;152532;-54
2023/04/01 08:52:41;;;;;;;;;;;;;;;17.86;49.31;100183.53;7261163;19;152650;-54
2023/04/01 08:55:19;;;;;;;;;;;;;;;17.88;49.19;100188.81;7254391;19;153800;-54
2023/04/01 08:57:53;;;;;;;;;;;;;;;17.86;49.04;100186.34;7259395;19;152731;-54
2023/04/01 09:00:23;;;;;;;;;;;;;;;17.88;48.91;100194.41;7259346;19;153688;-54
2023/04/01 09:02:59;;;;;;;;;;;;;;;17.87;48.91;100187.16;7258462;19;153291;-55
2023/04/01 09:05:36;;;;;;;;;;;;;;;17.84;48.95;100191.41;7266680;19;153369;-54
2023/04/01 09:08:03;;;;;;;;;;;;;;;17.82;49.17;100198.44;7256243;19;153425;-54
2023/04/01 09:10:30;;;;;;;;;;;;;;;17.85;48.88;100192.25;7261029;19;152932;-54
2023/04/01 09:13:09;;;;;;;;;;;;;;;17.83;49.30;100209.31;7259716;19;153392;-54
2023/04/01 09:15:45;;;;;;;;;;;;;;;17.84;49.24;100201.75;7252601;19;154045;-54
2023/04/01 09:18:16;;;;;;;;;;;;;;;17.83;48.93;100212.09;7255832;19;152641;-54
2023/04/01 09:20:43;;;;;;;;;;;;;;;17.83;49.19;100214.06;7257559;19;153566;-54
2023/04/01 09:23:21;;;;;;;;;;;;;;;17.87;49.04;100209.53;7258376;19;153804;-54
2023/04/01 09:25:54;;;;;;;;;;;;;;;17.85;49.07;100217.41;7256444;19;152887;-55
2023/04/01 09:28:37;;;;;;;;;;;;;;;17.82;48.95;100224.41;7266884;19;153511;-54
2023/04/01 09:31:17;;;;;;;;;;;;;;;17.86;48.86;100227.41;7256424;19;153822;-54
2023/04/01 09:34:04;;;;;;;;;;;;;;;17.85;49.05;100226.63;7255554;19;153947;-54
2023/04/01 09:36:47;;;;;;;;;;;;;;;17.87;49.13;100221.53;7256950;19;153737;-54
2023/04/01 09:39:23;;;;;;;;;;;;;;;17.83;48.87;100228.03;7257818;19;153678;-55
2023/04/01 09:42:05;;;;;;;;;;;;;;;17.81;48.89;100231.13;7258089;19;153977;-54
2023/04/01 09:44:35;;;;;;;;;;;;;;;17.83;49.15;100244.81;7254308;19;154068;-54
2023/04/01 09:47:12;;;;;;;;;;;;;;;17.80;48.89;100234.25;7252509;19;152578;-54
2023/04/01 09:49:59;;;;;;;;;;;;;;;17.79;49.20;100241.81;7261604;19;153461;-54
2023/04/01 09:52:35;;;;;;;;;;;;;;;17.80;49.27;100249.06;7263081;19;154256;-54
2023/04/01 09:55:11;;;;;;;;;;;;;;;17.83;48.87;100251.22;7260078;19;152299;-55
2023/04/01 09:57:41;;;;;;;;;;;;;;;17.81;48.81;100253.50;7262322;19;153713;-54
2023/04/01 10:00:15;;;;;;;;;;;;;;;17.83;49.13;100253.19;7263701;19;153855;-54
2023/04/01 10:02:52;;;;;;;;;;;;;;;17.81;49.16;100269.44;7261714;19;152457;-54
2023/04/01 10:05:28;;;;;;;;;;;;;;;17.80;49.17;100265.81;7261673;19;153683;-54
2023/04/01 10:07:56;;;;;;;;;;;;;;;17.82;49.27;100265.50;7266903;19;152442;-54
2023/04/01 10:10:26;;;;;;;;;;;;;;;17.77;49.04;100269.22;7267853;19;153265;-55
2023/04/01 10:12:53;;;;;;;;;;;;;;;17.81;48.82;100275.03;7272891;19;152397;-54
2023/04/01 10:15:30;;;;;;;;;;;;;;;17.81;49.22;100270.25;7264210;19;153711;-54
2023/04/01 10:18:06;;;;;;;;;;;;;;;17.81;49.03;100280.63;7253130;19;154133;-54
2023/04/01 10:20:45;;;;;;;;;;;;;;;17.78;48.93;100285.69;7265352;19;153800;-55
2023/04/01 10:23:19;;;;;;;;;;;;;;;17.78;48.85;100284.84;7264583;19;153496;-54
2023/04/01 10:25:55;;;;;;;;;;;;;;;17.77;48.99;100289.59;7260671;19;153069;-54
2023/04/01 10:28:33;;;;;;;;;;;;;;;17.80;48.99;100292.94;7261062;19;152318;-55
2023/04/01 10:31:18;;;;;;;;;;;;;;;17.78;48.94;100293.22;7264850;19;153283;-54
2023/04/01 10:33:55;;;;;;;;;;;;;;;17.79;48.82;100306.06;7261038;19;154008;-54
2023/04/01 10:36:24;;;;;;;;;;;;;;;17.77;49.04;100305.53;7267653;19;152113;-54
2023/04/01 10:39:00;;;;;;;;;;;;;;;17.77;49.21;100302.75;7260157;19;154037;-54
2023/04/01 10:41:36;;;;;;;;;;;;;;;17.76;48.91;100307.50;7263124;19;152795;-54
2023/04/01 10:44:03;;;;;;;;;;;;;;;17.75;49.18;100305.84;7260720;19;153495;-54
2023/04/01 10:46:33;;;;;;;;;;;;;;;17.77;49.05;100314.75;7255248;19;153878;-54
2023/04/01 10:49:11;;;;;;;;;;;;;;;17.77;48.96;100317.53;7260369;19;152894;-54
2023/04/01 10:51:47;;;;;;;;;;;;;;;17.81;49.14;100322.53;7260929;19;153374;-54
2023/04/01 10:54:15;;;;;;;;;;;;;;;17.78;49.21;100329.56;7259603;19;153976;-54
2023/04/01 10:56:48;;;;;;;;;;;;;;;17.77;48.82;100323.13;7260255;19;152127;-54
2023/04/01 10:59:25;;;;;;;;;;;;;;;17.76;48.96;100335.44;7268103;19;153822;-54
2023/04/01 11:02:01;;;;;;;;;;;;;;;17.75;49.20;100336.59;7257579;19;154033;-54
2023/04/01 11:04:46;;;;;;;;;;;;;;;17.77;48.73;100342.69;7262047;19;153828;-54
2023/04/01 11:07:13;;;;;;;;;;;;;;;17.76;48.72;100343.00;7258334;19;153923;-54
2023/04/01 11:09:50;;;;;;;;;;;;;;;17.78;48.65;100346.31;7263747;19;152596;-54
2023/04/01 11:12:24;;;;;;;;;;;;;;;17.75;49.10;100349.72;7262258;19;153797;-54
2023/04/01 11:14:52;;;;;;;;;;;;;;;17.80;49.06;100349.66;7257914;19;154423;-54
2023/04/01 11:17:30;;;;;;;;;;;;;;;17.81;48.64;100348.50;7256804;19;152409;-54
2023/04/01 11:20:06;;;;;;;;;;;;;;;17.79;49.13;100353.56;7261197;19;153489;-55
2023/04/01 11:22:40;;;;;;;;;;;;;;;17.77;48.77;100359.44;7269773;19;153817;-55
2023/04/01 11:25:17;;;;;;;;;;;;;;;17.79;49.07;100359.16;7262334;19;153872;-54
2023/04/01 11:27:45;;;;;;;;;;;;;;;17.82;48.99;100366.91;7258561;19;153959;-55
2023/04/01 11:30:21;;;;;;;;;;;;;;;17.82;48.68;100368.88;7263555;19;152975;-55
2023/04/01 11:32:49;;;;;;;;;;;;;;;17.81;49.00;100370.03;7259415;19;153282;-54
2023/04/01 11:35:26;;;;;;;;;;;;;;;17.80;48.76;100374.78;7259377;19;153578;-55
2023/04/01 11:37:55;;;;;;;;;;;;;;;17.80;49.09;100369.22;7256374;19;152410;-55
2023/04/01 11:40:33;;;;;;;;;;;;;;;17.80;48.99;100373.97;7260690;19;154278;-55
2023/04/01 11:43:12;;;;;;;;;;;;;;;17.84;48.63;100375.00;7257181;19;154408;-55
2023/04/01 11:46:05;;;;;;;;;;;;;;;17.84;48.63;100380.59;7264304;19;152331;-54
2023/04/01 11:48:41;;;;;;;;;;;;;;;17.81;48.87;100381.22;7256839;19;153484;-54
2023/04/01 11:51:11;;;;;;;;;;;;;;;17.83;48.68;100392.91;7261685;19;152676;-54
2023/04/01 11:53:48;;;;;;;;;;;;;;;17.83;48.72;100401.28;7260509;19;152837;-54
2023/04/01 11:56:18;;;;;;;;;;;;;;;17.85;48.83;100405.47;7260384;19;153793;-54
2023/04/01 11:58:52;;;;;;;;;;;;;;;17.85;48.72;100401.81;7259931;19;154106;-54
2023/04/01 12:01:26;;;;;;;;;;;;;;;17.86;48.51;100409.06;7259893;19;154287;-54
2023/04/01 12:04:00;;;;;;;;;;;;;;;17.86;48.68;100409.06;7256695;19;154216;-54
2023/04/01 12:06:34;;;;;;;;;;;;;;;17.87;48.75;100408.75;7264481;19;152008;-54
2023/04/01 12:09:01;;;;;;;;;;;;;;;17.85;48.57;100419.44;7257063;19;152566;-54
2023/04/01 12:11:30;;;;;;;;;;;;;;;17.85;48.48;100413.84;7260582;19;152983;-54
2023/04/01 12:14:06;;;;;;;;;;;;;;;17.84;48.78;100425.31;7259887;19;152738;-54
2023/04/01 12:16:42;;;;;;;;;;;;;;;17.84;48.50;100412.16;7255541;19;154181;-54
2023/04/01 12:19:15;;;;;;;;;;;;;;;17.87;48.43;100427.47;7256006;19;152112;-54
2023/04/01 12:21:46;;;;;;;;;;;;;;;17.89;48.69;100419.66;7259133;19;153507;-54
2023/04/01 12:24:22;;;;;;;;;;;;;;;17.89;48.31;100430.81;7258071;19;153646;-54
2023/04/01 12:27:02;;;;;;;;;;;;;;;17.92;48.26;100439.41;7257154;19;153655;-54
2023/04/01 12:29:29;;;;;;;;;;;;;;;17.90;48.59;100438.06;7268729;19;153380;-54
2023/04/01 12:32:06;;;;;;;;;;;;;;;17.92;48.56;100444.19;7257978;19;151969;-54
2023/04/01 12:34:42;;;;;;;;;;;;;;;17.90;48.44;100450.06;7258049;19;152677;-54
2023/04/01 12:37:18;;;;;;;;;;;;;;;17.89;48.51;100454.00;7257773;19;153986;-54
2023/04/01 12:39:49;;;;;;;;;;;;;;;17.92;48.46;100459.00;7259033;19;152786;-54
2023/04/01 12:42:25;;;;;;;;;;;;;;;17.91;48.28;100464.88;7261939;19;152513;-54
2023/04/01 12:44:53;;;;;;;;;;;;;;;17.89;48.34;100467.97;7255141;19;154016;-54
2023/04/01 12:47:20;;;;;;;;;;;;;;;17.90;48.35;100468.81;7254938;19;152695;-54
2023/04/01 12:49:55;;;;;;;;;;;;;;;17.92;48.24;100475.75;7257514;19;154015;-54
2023/04/01 12:52:25;;;;;;;;;;;;;;;17.90;48.26;100474.41;7265599;19;153379;-55